createdAt,value
2023-05-13T00:01:40.576Z,100488.31
2023-05-13T00:04:10.571Z,100493.59
2023-05-13T00:06:43.607Z,100485.69
2023-05-13T00:09:13.583Z,100490.97
2023-05-13T00:11:46.580Z,100482.19
2023-05-13T00:14:16.235Z,100481.22
2023-05-13T00:16:47.665Z,100483.91
2023-05-13T00:19:17.242Z,100479.53
2023-05-13T00:21:49.364Z,100486.47
2023-05-13T00:24:19.575Z,100482.13
2023-05-13T00:26:50.583Z,100476.81
2023-05-13T00:29:20.152Z,100481.28
2023-05-13T00:31:49.799Z,100475.97
2023-05-13T00:34:19.748Z,100475.09
2023-05-13T00:36:55.573Z,100473.34
2023-05-13T00:39:25.103Z,100476.81
2023-05-13T00:41:55.531Z,100481.22
2023-05-13T00:44:25.577Z,100476.78
2023-05-13T00:46:55.154Z,100473.28
2023-05-13T00:49:26.584Z,100481.09
2023-05-13T00:51:59.681Z,100478.47
2023-05-13T00:54:32.551Z,100472.28
2023-05-13T00:57:02.110Z,100478.38
2023-05-13T00:59:33.585Z,100479.16
2023-05-13T01:02:14.595Z,100486.03
2023-05-13T01:04:47.722Z,100484.16
2023-05-13T01:07:36.555Z,100479.72
2023-05-13T01:10:11.521Z,100480.50
2023-05-13T01:12:46.462Z,100484.03
2023-05-13T01:15:18.587Z,100485.78
2023-05-13T01:17:56.537Z,100491.88
2023-05-13T01:20:26.871Z,100492.69
2023-05-13T01:22:59.557Z,100493.81
2023-05-13T01:25:29.125Z,100499.06
2023-05-13T01:27:58.831Z,100500.56
2023-05-13T01:30:28.773Z,100514.94
2023-05-13T01:32:58.614Z,100520.16
2023-05-13T01:35:31.353Z,100517.75
2023-05-13T01:38:05.409Z,100514.97
2023-05-13T01:40:35.879Z,100507.97
2023-05-13T01:43:05.581Z,100506.25
2023-05-13T01:45:35.517Z,100514.09
2023-05-13T01:48:05.157Z,100513.19
2023-05-13T01:50:34.968Z,100519.28
2023-05-13T01:53:07.198Z,100513.84
2023-05-13T01:55:37.562Z,100517.88
2023-05-13T01:58:07.105Z,100520.44
2023-05-13T02:00:36.608Z,100517.69
2023-05-13T02:03:06.593Z,100522.81
2023-05-13T02:05:36.544Z,100514.06
2023-05-13T02:08:09.753Z,100515.38
2023-05-13T02:10:39.555Z,100512.69
2023-05-13T02:13:09.098Z,100522.25
2023-05-13T02:15:40.076Z,100524.72
2023-05-13T02:18:09.631Z,100527.84
2023-05-13T02:20:39.154Z,100520.31
2023-05-13T02:23:11.393Z,100523.78
2023-05-13T02:25:41.570Z,100522.91
2023-05-13T02:28:11.114Z,100523.75
2023-05-13T02:30:42.536Z,100514.88
2023-05-13T02:33:12.171Z,100512.16
2023-05-13T02:35:41.699Z,100510.19
2023-05-13T02:38:14.851Z,100505.66
2023-05-13T02:43:19.546Z,100517.28
2023-05-13T02:45:49.367Z,100517.25
2023-05-13T02:48:19.532Z,100526.81
2023-05-13T02:50:49.029Z,100516.13
2023-05-13T02:53:21.539Z,100512.41
2023-05-13T02:55:51.054Z,100511.66
2023-05-13T02:58:24.580Z,100511.56
2023-05-13T03:00:54.137Z,100521.34
2023-05-13T03:03:24.752Z,100517.84
2023-05-13T03:05:54.506Z,100519.59
2023-05-13T03:08:26.711Z,100523.94
2023-05-13T03:10:56.361Z,100519.31
2023-05-13T03:13:25.959Z,100516.78
2023-05-13T03:15:57.578Z,100520.97
2023-05-13T03:18:28.962Z,100530.75
2023-05-13T03:20:59.574Z,100527.25
2023-05-13T03:23:31.726Z,100518.41
2023-05-13T03:28:38.559Z,100529.31
2023-05-13T03:31:08.573Z,100525.94
2023-05-13T03:33:38.205Z,100530.59
2023-05-13T03:36:08.443Z,100529.19
2023-05-13T03:38:40.858Z,100532.09
2023-05-13T03:41:10.426Z,100530.50
2023-05-13T03:43:40.009Z,100544.75
2023-05-13T03:46:09.545Z,100537.34
2023-05-13T03:48:39.068Z,100544.50
2023-05-13T03:51:08.822Z,100536.69
2023-05-13T03:53:41.010Z,100543.94
2023-05-13T03:56:10.642Z,100550.09
2023-05-13T03:58:40.290Z,100553.69
2023-05-13T04:01:10.000Z,100543.97
2023-05-13T04:03:39.539Z,100551.91
2023-05-13T04:06:09.481Z,100547.50
2023-05-13T04:08:42.024Z,100558.00
2023-05-13T04:11:11.587Z,100567.47
2023-05-13T04:13:41.230Z,100564.66
2023-05-13T04:16:10.924Z,100571.97
2023-05-13T04:18:40.509Z,100570.16
2023-05-13T04:21:11.637Z,100570.78
2023-05-13T04:23:44.532Z,100576.81
2023-05-13T04:26:14.088Z,100572.84
2023-05-13T04:28:43.600Z,100582.72
2023-05-13T04:31:13.164Z,100580.31
2023-05-13T04:33:42.758Z,100583.03
2023-05-13T04:36:14.868Z,100583.50
2023-05-13T04:38:47.283Z,100588.31
2023-05-13T04:41:16.808Z,100583.63
2023-05-13T04:43:46.350Z,100577.56
2023-05-13T04:46:15.942Z,100584.63
2023-05-13T04:48:48.360Z,100586.28
2023-05-13T04:51:18.666Z,100588.94
2023-05-13T04:53:51.182Z,100592.78
2023-05-13T04:56:21.954Z,100594.53
2023-05-13T04:58:51.847Z,100588.88
2023-05-13T05:01:21.405Z,100590.72
2023-05-13T05:03:51.015Z,100588.13
2023-05-13T05:06:21.996Z,100589.94
2023-05-13T05:08:54.088Z,100594.50
2023-05-13T05:11:23.642Z,100582.84
2023-05-13T05:13:53.179Z,100589.22
2023-05-13T05:16:22.683Z,100592.19
2023-05-13T05:18:52.303Z,100596.91
2023-05-13T05:21:21.930Z,100595.25
2023-05-13T05:23:54.062Z,100598.81
2023-05-13T05:26:23.679Z,100596.88
2023-05-13T05:28:53.219Z,100593.34
2023-05-13T05:31:22.812Z,100602.91
2023-05-13T05:33:52.581Z,100590.09
2023-05-13T05:36:22.247Z,100607.69
2023-05-13T05:38:54.363Z,100603.78
2023-05-13T05:41:25.493Z,100612.22
2023-05-13T05:43:55.016Z,100613.75
2023-05-13T05:46:25.049Z,100606.25
2023-05-13T05:48:54.794Z,100611.34
2023-05-13T05:51:24.344Z,100610.72
2023-05-13T05:53:56.465Z,100603.69
2023-05-13T05:56:25.952Z,100615.41
2023-05-13T05:58:56.527Z,100611.94
2023-05-13T06:01:26.071Z,100613.66
2023-05-13T06:03:55.634Z,100608.00
2023-05-13T06:06:25.245Z,100617.06
2023-05-13T06:08:57.449Z,100616.22
2023-05-13T06:11:27.011Z,100609.41
2023-05-13T06:13:57.691Z,100600.56
2023-05-13T06:16:27.551Z,100603.56
2023-05-13T06:18:57.276Z,100606.88
2023-05-13T06:21:26.908Z,100607.13
2023-05-13T06:23:59.523Z,100615.56
2023-05-13T06:26:29.888Z,100611.91
2023-05-13T06:28:59.450Z,100620.75
2023-05-13T06:31:29.245Z,100613.50
2023-05-13T06:33:58.811Z,100618.94
2023-05-13T06:36:29.286Z,100620.19
2023-05-13T06:39:01.512Z,100625.34
2023-05-13T06:41:31.334Z,100625.06
2023-05-13T06:44:00.926Z,100621.06
2023-05-13T06:46:30.526Z,100623.28
2023-05-13T06:49:00.354Z,100629.47
2023-05-13T06:51:30.830Z,100624.59
2023-05-13T06:54:03.071Z,100628.53
2023-05-13T06:56:33.118Z,100632.41
2023-05-13T06:59:02.673Z,100627.47
2023-05-13T07:01:32.386Z,100627.34
2023-05-13T07:04:02.153Z,100638.22
2023-05-13T07:06:32.506Z,100623.66
2023-05-13T07:09:08.325Z,100631.09
2023-05-13T07:11:38.437Z,100630.81
2023-05-13T07:14:07.967Z,100630.84
2023-05-13T07:16:37.464Z,100622.34
2023-05-13T07:19:06.987Z,100625.63
2023-05-13T07:21:36.713Z,100626.25
2023-05-13T07:24:09.639Z,100619.78
2023-05-13T07:26:39.900Z,100617.75
2023-05-13T07:29:09.439Z,100625.59
2023-05-13T07:34:08.384Z,100625.94
2023-05-13T07:36:37.906Z,100625.63
2023-05-13T07:39:10.515Z,100614.72
2023-05-13T07:41:40.094Z,100631.19
2023-05-13T07:44:13.241Z,100633.06
2023-05-13T07:46:42.815Z,100633.44
2023-05-13T07:49:12.438Z,100630.09
2023-05-13T07:51:42.137Z,100637.81
2023-05-13T07:54:14.703Z,100639.38
2023-05-13T07:56:44.479Z,100644.53
2023-05-13T07:59:14.180Z,100634.66
2023-05-13T08:01:45.503Z,100636.25
2023-05-13T08:04:15.460Z,100634.38
2023-05-13T08:06:45.329Z,100644.28
2023-05-13T08:09:18.243Z,100651.28
2023-05-13T08:11:48.274Z,100649.19
2023-05-13T08:14:17.842Z,100641.75
2023-05-13T08:16:47.455Z,100645.16
2023-05-13T08:19:18.199Z,100646.94
2023-05-13T08:21:47.806Z,100648.72
2023-05-13T08:24:20.488Z,100658.28
2023-05-13T08:26:50.520Z,100653.75
2023-05-13T08:29:20.054Z,100648.50
2023-05-13T08:31:50.224Z,100651.84
2023-05-13T08:34:19.802Z,100655.75
2023-05-13T08:36:49.344Z,100649.50
2023-05-13T08:39:22.012Z,100664.38
2023-05-13T08:41:54.681Z,100653.81
2023-05-13T08:44:29.241Z,100649.81
2023-05-13T08:47:07.383Z,100664.81
2023-05-13T08:49:37.767Z,100661.59
2023-05-13T08:52:09.053Z,100646.72
2023-05-13T08:54:41.689Z,100646.78
2023-05-13T08:57:11.256Z,100646.16
2023-05-13T08:59:40.808Z,100652.13
2023-05-13T09:02:12.472Z,100642.16
2023-05-13T09:04:44.107Z,100645.31
2023-05-13T09:07:14.505Z,100649.59
2023-05-13T09:09:47.549Z,100656.34
2023-05-13T09:12:50.127Z,100658.69
2023-05-13T09:15:21.245Z,100655.03
2023-05-13T09:17:52.741Z,100648.81
2023-05-13T09:20:25.538Z,100649.47
2023-05-13T09:22:56.929Z,100654.72
2023-05-13T09:25:29.685Z,100652.44
2023-05-13T09:28:01.791Z,100640.81
2023-05-13T09:30:32.938Z,100645.75
2023-05-13T09:33:13.862Z,100650.69
2023-05-13T09:35:45.053Z,100655.31
2023-05-13T09:38:18.685Z,100645.53
2023-05-13T09:40:58.681Z,100641.13
2023-05-13T09:43:29.706Z,100635.47
2023-05-13T09:46:00.453Z,100634.91
2023-05-13T09:48:32.366Z,100632.44
2023-05-13T09:51:02.325Z,100633.34
2023-05-13T09:53:32.090Z,100629.19
2023-05-13T09:56:04.407Z,100633.16
2023-05-13T09:58:34.831Z,100636.97
2023-05-13T10:01:05.639Z,100627.00
2023-05-13T10:03:35.488Z,100633.31
2023-05-13T10:06:07.332Z,100629.97
2023-05-13T10:08:38.084Z,100623.56
2023-05-13T10:11:11.581Z,100617.31
2023-05-13T10:13:42.913Z,100631.00
2023-05-13T10:16:12.800Z,100626.41
2023-05-13T10:18:42.857Z,100626.47
2023-05-13T10:21:12.409Z,100623.34
2023-05-13T10:23:42.435Z,100623.19
2023-05-13T10:26:15.470Z,100624.38
2023-05-13T10:28:46.383Z,100632.59
2023-05-13T10:31:15.954Z,100624.06
2023-05-13T10:33:46.006Z,100613.66
2023-05-13T10:36:37.454Z,100614.59
2023-05-13T10:39:27.840Z,100620.19
2023-05-13T10:42:33.763Z,100633.75
2023-05-13T10:45:04.386Z,100617.69
2023-05-13T10:47:35.011Z,100619.03
2023-05-13T10:50:08.989Z,100608.81
2023-05-13T10:52:45.952Z,100636.19
2023-05-13T10:55:20.515Z,100615.50
2023-05-13T10:58:15.159Z,100614.09
2023-05-13T11:00:46.238Z,100603.88
2023-05-13T11:03:18.288Z,100627.88
2023-05-13T11:05:49.951Z,100616.56
2023-05-13T11:08:40.835Z,100605.44
2023-05-13T11:11:21.316Z,100607.69
2023-05-13T11:13:56.008Z,100611.81
2023-05-13T11:16:25.953Z,100618.81
2023-05-13T11:18:55.997Z,100604.97
2023-05-13T11:21:35.481Z,100621.72
2023-05-13T11:24:07.179Z,100616.06
2023-05-13T11:26:49.872Z,100616.88
2023-05-13T11:29:31.122Z,100622.59
2023-05-13T11:32:01.721Z,100616.06
2023-05-13T11:34:31.594Z,100607.13
2023-05-13T11:37:10.622Z,100618.09
2023-05-13T11:39:43.017Z,100608.03
2023-05-13T11:42:13.681Z,100621.69
2023-05-13T11:44:52.144Z,100616.28
2023-05-13T11:47:28.947Z,100626.56
2023-05-13T11:49:59.333Z,100615.09
2023-05-13T11:52:29.581Z,100606.13
2023-05-13T11:55:00.468Z,100600.75
2023-05-13T11:57:32.937Z,100603.50
2023-05-13T12:00:07.762Z,100609.75
2023-05-13T12:02:40.695Z,100598.09
2023-05-13T12:05:12.486Z,100608.78
2023-05-13T12:07:42.436Z,100600.19
2023-05-13T12:10:12.463Z,100605.47
2023-05-13T12:12:43.540Z,100606.41
2023-05-13T12:15:18.545Z,100596.47
2023-05-13T12:17:49.523Z,100594.53
2023-05-13T12:20:20.330Z,100601.81
2023-05-13T12:22:57.021Z,100589.69
2023-05-13T12:25:40.347Z,100597.94
2023-05-13T12:28:12.032Z,100593.38
2023-05-13T12:30:49.488Z,100601.97
2023-05-13T12:33:21.110Z,100603.88
2023-05-13T12:35:52.340Z,100604.19
2023-05-13T12:38:24.122Z,100595.75
2023-05-13T12:40:55.361Z,100600.50
2023-05-13T12:43:25.775Z,100614.03
2023-05-13T12:45:58.480Z,100602.44
2023-05-13T12:48:28.711Z,100596.63
2023-05-13T12:51:01.286Z,100600.78
2023-05-13T12:53:31.747Z,100607.94
2023-05-13T12:56:01.473Z,100609.31
2023-05-13T12:58:31.218Z,100606.16
2023-05-13T13:01:03.419Z,100611.72
2023-05-13T13:03:33.095Z,100599.72
2023-05-13T13:06:02.727Z,100604.50
2023-05-13T13:08:32.473Z,100606.25
2023-05-13T13:11:02.139Z,100600.94
2023-05-13T13:13:31.729Z,100608.97
2023-05-13T13:16:04.198Z,100607.03
2023-05-13T13:18:33.785Z,100610.38
2023-05-13T13:21:03.329Z,100606.47
2023-05-13T13:23:32.837Z,100616.94
2023-05-13T13:26:02.478Z,100608.13
2023-05-13T13:28:32.112Z,100617.19
2023-05-13T13:31:04.270Z,100624.59
2023-05-13T13:33:33.798Z,100609.72
2023-05-13T13:36:03.369Z,100610.06
2023-05-13T13:38:32.887Z,100610.75
2023-05-13T13:41:02.449Z,100619.47
2023-05-13T13:43:31.947Z,100614.84
2023-05-13T13:46:04.134Z,100617.03
2023-05-13T13:48:33.673Z,100611.31
2023-05-13T13:51:03.178Z,100614.75
2023-05-13T13:53:32.692Z,100609.19
2023-05-13T17:16:16.394Z,100552.31
2023-05-13T17:18:45.972Z,100547.66
2023-05-13T17:21:15.589Z,100547.00
2023-05-13T17:23:45.262Z,100543.97
2023-05-13T17:26:15.464Z,100546.84
2023-05-13T17:28:45.004Z,100541.50
2023-05-13T17:31:17.123Z,100537.84
2023-05-13T17:33:46.795Z,100535.19
2023-05-13T17:36:16.510Z,100540.16
2023-05-13T17:38:46.095Z,100540.47
2023-05-13T17:41:15.656Z,100537.00
2023-05-13T17:43:45.283Z,100539.47
2023-05-13T17:46:17.396Z,100531.50
2023-05-13T17:48:47.028Z,100536.19
2023-05-13T17:51:16.596Z,100534.72
2023-05-13T17:53:46.095Z,100537.69
2023-05-13T17:56:15.631Z,100528.13
2023-05-13T17:58:45.219Z,100530.91
2023-05-13T18:01:17.376Z,100536.19
2023-05-13T18:03:46.903Z,100532.56
2023-05-13T18:06:16.595Z,100535.47
2023-05-13T18:08:46.357Z,100530.28
2023-05-13T18:11:15.915Z,100534.88
2023-05-13T18:13:45.511Z,100536.91
2023-05-13T18:18:56.688Z,100535.38
2023-05-13T18:24:10.471Z,100540.28
2023-05-13T18:26:40.063Z,100538.69
2023-05-13T18:29:09.697Z,100539.75
2023-05-13T18:31:41.910Z,100543.47
2023-05-13T18:34:11.575Z,100540.97
2023-05-13T18:36:41.161Z,100548.16
2023-05-13T18:39:11.316Z,100547.44
2023-05-13T18:41:40.885Z,100548.53
2023-05-13T18:44:10.430Z,100561.91
2023-05-13T18:46:44.581Z,100554.00
2023-05-13T18:49:14.176Z,100559.47
2023-05-13T18:51:45.516Z,100561.53
2023-05-13T18:54:15.132Z,100572.13
2023-05-13T18:56:44.781Z,100566.88
2023-05-13T18:59:16.449Z,100562.69
2023-05-13T19:01:48.825Z,100561.03
2023-05-13T19:04:18.481Z,100562.81
2023-05-13T19:06:49.456Z,100570.78
2023-05-13T19:09:19.098Z,100565.47
2023-05-13T19:11:48.641Z,100573.50
2023-05-13T19:14:18.492Z,100567.41
2023-05-13T19:16:50.922Z,100570.19
2023-05-13T19:19:20.525Z,100571.03
2023-05-13T19:21:50.065Z,100579.03
2023-05-13T19:24:19.617Z,100573.75
2023-05-13T19:26:49.153Z,100573.84
2023-05-13T19:29:18.783Z,100572.03
2023-05-13T19:31:50.884Z,100573.81
2023-05-13T19:34:20.492Z,100577.38
2023-05-13T19:36:50.052Z,100583.53
2023-05-13T19:39:19.616Z,100583.56
2023-05-13T19:41:49.949Z,100576.53
2023-05-13T19:44:19.625Z,100587.13
2023-05-13T19:46:51.877Z,100583.59
2023-05-13T19:49:21.477Z,100587.97
2023-05-13T19:51:51.040Z,100591.47
2023-05-13T19:54:20.744Z,100587.06
2023-05-13T19:56:50.278Z,100588.81
2023-05-13T19:59:20.465Z,100587.09
2023-05-13T20:01:52.645Z,100586.22
2023-05-13T20:04:22.784Z,100585.31
2023-05-13T20:06:52.366Z,100573.91
2023-05-13T20:09:21.903Z,100580.91
2023-05-13T20:11:54.239Z,100580.94
2023-05-13T20:14:27.804Z,100581.81
2023-05-13T20:17:00.071Z,100580.06
2023-05-13T20:19:29.621Z,100586.22
2023-05-13T20:21:59.124Z,100583.56
2023-05-13T20:24:28.747Z,100585.28
2023-05-13T20:26:58.581Z,100587.06
2023-05-13T20:29:28.204Z,100573.84
2023-05-13T20:32:04.570Z,100581.75
2023-05-13T20:34:34.444Z,100570.31
2023-05-13T20:37:04.245Z,100573.78
2023-05-13T20:39:33.867Z,100571.16
2023-05-13T20:42:03.444Z,100575.56
2023-05-13T20:44:33.047Z,100574.66
2023-05-13T20:47:05.285Z,100574.66
2023-05-13T20:49:34.841Z,100574.66
2023-05-13T20:52:08.481Z,100572.03
2023-05-13T20:54:38.937Z,100570.28
2023-05-13T20:57:08.786Z,100572.03
2023-05-13T20:59:38.285Z,100570.28
2023-05-13T21:02:10.617Z,100572.03
2023-05-13T21:04:40.143Z,100571.97
2023-05-13T21:07:09.701Z,100566.63
2023-05-13T21:09:39.248Z,100561.34
2023-05-13T21:12:09.470Z,100571.84
2023-05-13T21:14:39.001Z,100579.75
2023-05-13T21:17:11.138Z,100580.59
2023-05-13T21:19:40.715Z,100580.63
2023-05-13T21:22:10.260Z,100580.59
2023-05-13T21:24:39.852Z,100582.31
2023-05-13T21:27:09.390Z,100577.06
2023-05-13T21:29:38.928Z,100582.31
2023-05-13T21:32:12.120Z,100575.28
2023-05-13T21:34:41.630Z,100576.19
2023-05-13T21:37:11.166Z,100574.41
2023-05-13T21:39:41.391Z,100570.91
2023-05-13T21:42:10.996Z,100573.53
2023-05-13T21:44:41.121Z,100573.56
2023-05-13T21:47:13.372Z,100571.78
2023-05-13T21:49:42.998Z,100571.69
2023-05-13T21:52:12.587Z,100572.53
2023-05-13T21:54:42.522Z,100567.25
2023-05-13T21:57:12.068Z,100564.59
2023-05-13T21:59:41.742Z,100562.81
2023-05-13T22:02:13.924Z,100564.53
2023-05-13T22:04:43.488Z,100565.38
2023-05-13T22:07:13.045Z,100571.56
2023-05-13T22:09:42.577Z,100570.63
2023-05-13T22:12:12.241Z,100567.97
2023-05-13T22:14:41.754Z,100565.34
2023-05-13T22:17:13.969Z,100566.19
2023-05-13T22:19:43.712Z,100568.72
2023-05-13T22:22:13.313Z,100575.66
2023-05-13T22:24:42.862Z,100570.41
2023-05-13T22:27:12.477Z,100566.78
2023-05-13T22:29:42.011Z,100560.66
2023-05-13T22:32:14.227Z,100551.91
2023-05-13T22:34:43.806Z,100558.91
2023-05-13T22:37:13.336Z,100554.47
2023-05-13T22:39:42.837Z,100554.44
2023-05-13T22:42:12.389Z,100551.72
2023-05-13T22:44:41.972Z,100555.06
2023-05-13T22:47:14.096Z,100546.25
2023-05-13T22:49:43.662Z,100546.22
2023-05-13T22:52:13.176Z,100546.22
2023-05-13T22:54:42.778Z,100555.78
2023-05-13T22:57:12.316Z,100543.53
2023-05-13T22:59:41.924Z,100545.25
2023-05-13T23:02:14.393Z,100539.00
2023-05-13T23:04:43.999Z,100552.16
2023-05-13T23:07:13.562Z,100547.75
2023-05-13T23:09:43.112Z,100546.00
2023-05-13T23:12:12.805Z,100544.16
2023-05-13T23:14:42.692Z,100544.13
2023-05-13T23:17:14.774Z,100539.72
2023-05-13T23:19:44.298Z,100543.19
2023-05-13T23:22:13.890Z,100540.59
2023-05-13T23:24:43.449Z,100534.47
2023-05-13T23:27:12.948Z,100538.00
2023-05-13T23:29:42.439Z,100532.72
2023-05-13T23:32:14.610Z,100531.72
2023-05-13T23:34:44.145Z,100529.09
2023-05-13T23:37:15.753Z,100528.25
2023-05-13T23:39:45.441Z,100533.44
2023-05-13T23:42:14.926Z,100528.09
2023-05-13T23:44:44.482Z,100526.28
2023-05-13T23:47:16.887Z,100530.59
2023-05-13T23:49:46.520Z,100535.81
2023-05-13T23:52:16.100Z,100533.94
2023-05-13T23:54:45.631Z,100538.38
2023-05-13T23:57:15.181Z,100527.75
2023-05-13T23:59:44.774Z,100527.78
